Time;durP1;ratioP1;P1;durP2;ratioP2;P2;SDS_P1;SDS_P2;PMS_P1;PMS_P2;Temp;Humidity;BMP_temperature;BMP_pressure;BME280_temperature;BME280_humidity;BME280_pressure;Samples;Min_cycle;Max_cycle;Signal;HPM_P1;HPM_P2
2023/07/06 00:01:42;;;;;;;7.75;2.92;;;;;;;22.55;61.38;99151.19;4873526;29;20539;-89
2023/07/06 00:04:09;;;;;;;6.22;3.50;;;;;;;22.50;63.27;99158.91;4874028;29;20066;-90
2023/07/06 00:06:34;;;;;;;4.13;3.08;;;;;;;22.46;61.85;99155.25;4870532;29;20123;-90
2023/07/06 00:09:00;;;;;;;2.85;2.00;;;;;;;22.51;59.09;99142.06;4870398;29;20500;-89
2023/07/06 00:11:38;;;;;;;2.75;1.90;;;;;;;22.56;58.09;99147.31;4870847;29;20032;-89
2023/07/06 00:14:04;;;;;;;4.07;2.33;;;;;;;22.50;58.74;99136.94;4870798;29;20431;-89
2023/07/06 00:16:30;;;;;;;4.35;2.05;;;;;;;22.46;58.73;99144.28;4870361;29;20032;-90
2023/07/06 00:18:58;;;;;;;3.03;2.00;;;;;;;22.48;58.43;99140.03;4869739;29;20036;-90
2023/07/06 00:21:27;;;;;;;3.35;2.13;;;;;;;22.53;57.61;99160.91;4871277;29;20519;-89
2023/07/06 00:23:52;;;;;;;4.88;2.38;;;;;;;22.51;58.21;99161.25;4870486;29;20023;-89
2023/07/06 00:26:20;;;;;;;4.38;2.35;;;;;;;22.38;58.91;99152.31;4870383;29;20040;-89
2023/07/06 00:28:48;;;;;;;4.70;2.88;;;;;;;22.36;61.26;99157.38;4870284;29;20472;-90
2023/07/06 00:31:21;;;;;;;5.57;2.92;;;;;;;22.35;62.22;99155.78;4870457;29;20590;-89
2023/07/06 00:33:49;;;;;;;5.28;3.17;;;;;;;22.16;63.92;99152.88;4871839;29;20498;-89
2023/07/06 00:36:15;;;;;;;8.05;3.50;;;;;;;22.12;64.08;99154.72;4863412;29;20043;-89
2023/07/06 00:38:41;;;;;;;9.93;3.58;;;;;;;22.08;64.73;99164.81;4857638;29;20040;-89
2023/07/06 00:41:07;;;;;;;6.53;3.63;;;;;;;21.90;65.88;99156.13;4868993;29;20488;-89
2023/07/06 00:43:53;;;;;;;6.57;3.47;;;;;;;21.83;65.96;99151.25;4869965;29;20127;-90
2023/07/06 00:46:18;;;;;;;5.97;3.65;;;;;;;21.81;65.68;99161.75;4869576;29;20043;-89
2023/07/06 00:48:44;;;;;;;7.88;3.05;;;;;;;21.71;64.64;99157.56;4869423;29;20029;-89
2023/07/06 00:51:27;;;;;;;4.40;3.30;;;;;;;21.76;65.71;99157.28;4868906;29;20019;-90
2023/07/06 00:53:56;;;;;;;11.85;3.67;;;;;;;21.72;65.90;99158.34;4870801;29;20080;-89
2023/07/06 00:56:23;;;;;;;4.97;3.42;;;;;;;21.63;65.98;99153.03;4869161;29;20032;-89
2023/07/06 00:58:49;;;;;;;7.82;3.45;;;;;;;21.64;66.27;99162.03;4868618;29;20016;-89
2023/07/06 01:01:16;;;;;;;6.50;3.13;;;;;;;21.51;66.71;99155.78;4869312;29;20035;-89
2023/07/06 01:03:46;;;;;;;4.95;3.35;;;;;;;21.31;66.90;99157.50;4868550;29;20109;-90
2023/07/06 01:06:16;;;;;;;7.32;3.40;;;;;;;21.27;66.88;99165.66;4870164;29;20135;-90
2023/07/06 01:08:42;;;;;;;6.22;3.63;;;;;;;21.23;67.07;99172.13;4870197;29;20021;-89
2023/07/06 01:11:09;;;;;;;5.05;3.53;;;;;;;21.24;67.04;99177.28;4869940;29;20066;-88
2023/07/06 01:13:35;;;;;;;6.05;3.35;;;;;;;21.23;66.59;99183.91;4885362;29;20028;-89
2023/07/06 01:16:12;;;;;;;3.83;3.20;;;;;;;21.25;66.23;99180.81;4870189;29;20483;-89
2023/07/06 01:18:53;;;;;;;4.95;3.60;;;;;;;21.25;66.03;99183.53;4877194;29;20028;-90
2023/07/06 01:21:28;;;;;;;6.72;3.60;;;;;;;21.15;66.34;99180.13;4892696;29;20036;-90
2023/07/06 01:23:54;;;;;;;5.43;3.30;;;;;;;21.22;66.03;99185.03;4872814;29;20044;-89
2023/07/06 01:26:44;;;;;;;7.05;3.65;;;;;;;21.21;65.87;99194.41;4901178;29;20046;-89
2023/07/06 01:29:16;;;;;;;7.10;3.38;;;;;;;21.09;66.20;99188.94;4901871;29;20029;-89
2023/07/06 01:31:51;;;;;;;8.30;3.83;;;;;;;21.09;66.57;99194.41;4888643;29;20039;-89
2023/07/06 01:34:41;;;;;;;5.20;3.28;;;;;;;21.00;66.63;99197.28;4904009;29;20029;-89
2023/07/06 01:37:15;;;;;;;5.47;3.33;;;;;;;21.09;66.48;99197.16;4888800;29;20051;-89
2023/07/06 01:39:40;;;;;;;5.40;3.78;;;;;;;20.97;67.32;99192.47;4905551;29;20067;-89
2023/07/06 01:42:12;;;;;;;4.50;3.45;;;;;;;21.11;66.66;99192.13;4873046;29;20040;-89
2023/07/06 01:44:38;;;;;;;;;;;;;;;21.13;66.23;99195.31;4905405;29;20116;-89
2023/07/06 01:47:04;;;;;;;5.20;3.45;;;;;;;21.02;66.74;99184.00;4903211;29;19922;-88
2023/07/06 01:49:30;;;;;;;5.55;3.50;;;;;;;21.00;66.73;99180.84;4888472;29;20175;-89
2023/07/06 01:52:06;;;;;;;5.03;3.42;;;;;;;20.98;67.15;99191.34;4872986;29;20039;-89
2023/07/06 01:55:20;;;;;;;5.93;3.78;;;;;;;21.08;67.07;99199.06;4873915;29;20024;-89
2023/07/06 01:58:01;;;;;;;6.75;3.50;;;;;;;21.06;66.92;99204.09;4891002;29;20063;-89
2023/07/06 02:00:27;;;;;;;4.28;3.20;;;;;;;21.04;66.69;99205.56;4903186;29;20411;-90
2023/07/06 02:02:52;;;;;;;5.80;3.03;;;;;;;21.10;66.67;99207.75;4873038;29;20039;-89
2023/07/06 02:05:21;;;;;;;6.30;3.55;;;;;;;21.09;68.19;99208.91;4872104;29;20048;-89
2023/07/06 02:07:49;;;;;;;6.88;3.45;;;;;;;21.07;68.15;99202.97;4871472;29;20050;-89
2023/07/06 02:10:15;;;;;;;4.88;3.63;;;;;;;21.07;68.25;99208.44;4872432;29;20039;-89
2023/07/06 02:12:42;;;;;;;6.35;3.92;;;;;;;21.01;68.81;99204.31;4871660;29;20402;-89
2023/07/06 02:15:09;;;;;;;13.52;3.72;;;;;;;21.09;67.76;99203.41;4871038;29;20143;-90
2023/07/06 02:17:36;;;;;;;6.45;3.42;;;;;;;21.13;68.30;99218.00;4873642;29;20044;-89
2023/07/06 02:20:01;;;;;;;4.30;3.38;;;;;;;20.98;68.05;99199.56;4872145;29;20025;-90
2023/07/06 02:22:28;;;;;;;5.03;3.45;;;;;;;20.95;68.03;99203.75;4872298;29;20028;-90
2023/07/06 02:24:53;;;;;;;6.47;3.30;;;;;;;20.98;67.80;99203.09;4872509;29;20482;-90
2023/07/06 02:27:19;;;;;;;4.05;3.33;;;;;;;20.79;69.09;99197.34;4871534;29;20028;-90
2023/07/06 02:29:45;;;;;;;4.88;3.50;;;;;;;20.82;69.65;99215.06;4871275;29;20028;-90
2023/07/06 02:32:11;;;;;;;5.05;3.40;;;;;;;20.68;69.66;99204.41;4871129;29;20488;-90
2023/07/06 02:34:36;;;;;;;4.68;3.50;;;;;;;20.66;70.05;99212.97;4872394;29;20032;-90
2023/07/06 02:37:03;;;;;;;5.38;3.25;;;;;;;20.62;69.14;99209.31;4872797;29;20523;-90
2023/07/06 02:39:30;;;;;;;4.40;3.10;;;;;;;20.55;70.05;99209.84;4872105;29;20020;-90
2023/07/06 02:41:56;;;;;;;7.22;3.60;;;;;;;20.63;69.85;99227.34;4887115;29;20024;-90
2023/07/06 02:44:22;;;;;;;4.55;3.35;;;;;;;20.62;69.67;99214.00;4872666;29;20029;-90
2023/07/06 02:46:47;;;;;;;6.80;3.30;;;;;;;20.60;69.31;99206.13;4871760;29;20507;-90
2023/07/06 02:49:13;;;;;;;10.32;3.67;;;;;;;20.58;70.66;99205.66;4871544;29;20065;-90
2023/07/06 02:51:40;;;;;;;9.18;3.75;;;;;;;20.54;70.49;99205.53;4872332;29;20029;-90
2023/07/06 02:54:06;;;;;;;5.45;4.00;;;;;;;20.52;70.73;99205.06;4871984;29;20032;-89
2023/07/06 02:56:32;;;;;;;8.10;3.47;;;;;;;20.59;70.72;99212.75;4872468;29;20134;-90
2023/07/06 02:58:57;;;;;;;5.82;4.03;;;;;;;20.62;69.92;99192.91;4871286;29;20059;-90
2023/07/06 03:01:23;;;;;;;5.82;3.78;;;;;;;20.65;70.19;99203.16;4871539;29;20131;-90
2023/07/06 03:03:51;;;;;;;6.28;4.00;;;;;;;20.64;70.47;99201.56;4871520;29;20027;-89
2023/07/06 03:06:18;;;;;;;5.38;3.85;;;;;;;20.66;70.52;99204.75;4871580;29;20111;-90
2023/07/06 03:08:44;;;;;;;5.28;3.63;;;;;;;20.66;70.09;99204.75;4871797;29;20027;-90
2023/07/06 03:11:10;;;;;;;6.80;4.20;;;;;;;20.77;70.23;99216.88;4870519;29;20028;-90
2023/07/06 03:13:36;;;;;;;6.45;4.20;;;;;;;20.78;69.70;99212.19;4871714;29;20040;-89
2023/07/06 03:16:03;;;;;;;10.43;4.28;;;;;;;20.81;69.76;99206.03;4860187;29;20037;-89
2023/07/06 03:18:28;;;;;;;6.90;4.03;;;;;;;20.83;69.47;99213.91;4864297;29;20052;-89
2023/07/06 03:20:55;;;;;;;6.05;3.50;;;;;;;20.75;69.59;99215.59;4865160;29;20045;-89
2023/07/06 03:23:21;;;;;;;5.53;3.67;;;;;;;20.70;70.68;99210.34;4871064;29;20038;-87
2023/07/06 03:25:52;;;;;;;5.25;3.60;;;;;;;20.72;71.16;99219.03;4864641;29;20033;-88
2023/07/06 03:28:18;;;;;;;7.38;3.80;;;;;;;20.63;71.34;99210.09;4878778;29;20040;-88
2023/07/06 03:30:43;;;;;;;8.65;4.57;;;;;;;20.62;70.62;99211.25;4869323;29;20273;-89
2023/07/06 03:33:09;;;;;;;8.48;4.22;;;;;;;20.65;70.56;99210.56;4860179;29;20055;-89
2023/07/06 03:35:36;;;;;;;4.07;3.03;;;;;;;20.80;68.32;99207.19;4854775;29;20029;-89
2023/07/06 03:38:01;;;;;;;7.90;3.53;;;;;;;20.94;68.21;99215.84;4859405;29;20037;-89
2023/07/06 03:40:29;;;;;;;5.90;3.60;;;;;;;20.90;68.31;99220.41;4858952;29;20036;-89
2023/07/06 03:42:55;;;;;;;3.95;3.42;;;;;;;20.87;67.79;99225.75;4861599;29;20039;-86
2023/07/06 03:45:21;;;;;;;120.53;11.20;;;;;;;20.89;67.36;99207.84;4862756;29;20020;-88
2023/07/06 03:47:47;;;;;;;4.88;3.33;;;;;;;20.83;68.36;99206.47;4861074;29;20036;-89
2023/07/06 03:50:14;;;;;;;7.35;4.00;;;;;;;20.72;70.24;99216.28;4854200;29;20495;-88
2023/07/06 03:52:40;;;;;;;7.30;3.90;;;;;;;20.62;70.70;99214.00;4854746;29;20029;-89
2023/07/06 03:55:08;;;;;;;7.13;3.42;;;;;;;20.60;71.18;99233.47;4855199;29;20069;-88
2023/07/06 03:57:34;;;;;;;6.72;3.70;;;;;;;20.48;71.45;99211.53;4853825;29;20031;-88
2023/07/06 03:59:59;;;;;;;8.15;3.88;;;;;;;20.48;71.35;99206.06;4854338;29;20547;-89
2023/07/06 04:02:25;;;;;;;4.32;3.47;;;;;;;20.55;70.98;99209.06;4868598;29;20084;-90
2023/07/06 04:04:52;;;;;;;8.85;3.40;;;;;;;20.61;70.29;99198.69;4876804;29;20039;-90
2023/07/06 04:07:18;;;;;;;5.13;3.70;;;;;;;20.87;69.36;99212.88;4862489;29;20044;-88
2023/07/06 04:09:44;;;;;;;5.40;3.38;;;;;;;20.93;68.88;99200.56;4866511;29;20063;-89
2023/07/06 04:12:13;;;;;;;6.93;3.38;;;;;;;20.85;69.74;99215.16;4852932;29;20105;-88
2023/07/06 04:14:39;;;;;;;6.47;3.28;;;;;;;20.85;68.78;99211.63;4869914;29;20032;-88
2023/07/06 04:17:07;;;;;;;13.43;4.30;;;;;;;20.89;68.39;99223.47;4858779;29;20033;-88
2023/07/06 04:19:34;;;;;;;4.82;3.42;;;;;;;21.04;68.17;99227.47;4859232;29;20025;-89
2023/07/06 04:22:00;;;;;;;4.75;3.30;;;;;;;20.98;68.24;99215.97;4860957;29;20037;-89
2023/07/06 04:24:31;;;;;;;17.30;6.78;;;;;;;20.94;68.22;99218.59;4866714;29;20061;-89
2023/07/06 04:27:00;;;;;;;14.23;4.53;;;;;;;21.14;68.00;99222.34;4867414;29;20029;-90
2023/07/06 04:29:26;;;;;;;79.55;18.67;;;;;;;21.32;68.16;99230.34;4867097;29;20088;-89
2023/07/06 04:31:55;;;;;;;22.20;6.25;;;;;;;21.33;68.08;99218.22;4864495;29;20032;-89
2023/07/06 04:34:21;;;;;;;12.60;4.75;;;;;;;21.27;68.33;99220.41;4859446;29;20038;-90
2023/07/06 04:36:47;;;;;;;6.60;3.35;;;;;;;21.18;67.67;99208.78;4860665;29;20041;-91
2023/07/06 04:39:12;;;;;;;4.88;3.30;;;;;;;21.23;67.16;99221.41;4860208;29;20044;-91
2023/07/06 04:41:38;;;;;;;6.15;3.67;;;;;;;21.24;67.14;99212.88;4857280;29;20469;-91
2023/07/06 04:44:03;;;;;;;4.53;3.13;;;;;;;21.42;66.38;99215.38;4861664;29;20041;-91
2023/07/06 04:46:29;;;;;;;6.88;3.55;;;;;;;21.45;66.76;99220.97;4851705;29;20040;-92
2023/07/06 04:48:55;;;;;;;5.80;3.65;;;;;;;21.55;66.63;99206.00;4851753;29;20085;-91
2023/07/06 04:51:20;;;;;;;5.70;4.53;;;;;;;21.77;66.43;99218.41;4855890;29;20029;-91
2023/07/06 04:53:48;;;;;;;9.88;6.30;;;;;;;21.84;66.24;99210.38;4852529;29;20092;-90
2023/07/06 05:02:42;;;;;;;7.10;3.50;;;;;;;22.23;65.17;99215.38;4846551;29;20041;-93
2023/07/06 05:05:18;;;;;;;16.35;11.32;;;;;;;22.38;64.72;99209.16;4834339;29;20037;-93
2023/07/06 05:07:46;;;;;;;8.02;4.13;;;;;;;22.51;64.75;99235.34;4848447;29;20066;-92
2023/07/06 05:10:11;;;;;;;5.68;3.90;;;;;;;22.35;64.58;99210.66;4846332;29;20065;-92
2023/07/06 05:12:38;;;;;;;6.18;4.45;;;;;;;22.45;65.30;99227.75;4831120;29;20137;-93
2023/07/06 05:15:26;;;;;;;12.15;5.57;;;;;;;22.39;64.65;99197.84;4830439;29;20022;-96
2023/07/06 05:17:59;;;;;;;10.40;5.25;;;;;;;22.66;63.54;99214.59;4847165;29;20079;-94
2023/07/06 05:20:30;;;;;;;10.05;6.07;;;;;;;22.88;63.70;99232.38;4855198;29;20033;-92
2023/07/06 05:23:00;;;;;;;7.45;5.47;;;;;;;23.00;63.58;99228.75;4854801;29;20042;-95
2023/07/06 05:25:26;;;;;;;12.60;6.05;;;;;;;22.88;64.38;99232.38;4854681;29;20045;-93
2023/07/06 05:27:52;;;;;;;13.27;5.70;;;;;;;22.44;64.72;99212.44;4851967;29;20557;-91
2023/07/06 05:30:18;;;;;;;9.57;4.75;;;;;;;22.54;65.45;99226.44;4876219;29;20034;-92
2023/07/06 05:32:44;;;;;;;10.82;5.22;;;;;;;22.52;64.90;99215.00;4876100;29;20048;-91
2023/07/06 05:35:09;;;;;;;8.75;5.13;;;;;;;22.63;65.44;99217.22;4889098;29;20025;-91
2023/07/06 05:37:37;;;;;;;11.25;5.47;;;;;;;22.83;64.95;99234.59;4844519;29;20021;-90
2023/07/06 05:40:10;;;;;;;11.27;4.93;;;;;;;23.00;64.42;99242.47;4872612;29;20088;-94
2023/07/06 05:42:35;;;;;;;8.40;5.32;;;;;;;23.09;63.97;99218.41;4870639;29;20133;-94
2023/07/06 05:45:01;;;;;;;10.48;5.40;;;;;;;23.27;63.39;99232.56;4875055;29;20033;-94
2023/07/06 05:47:27;;;;;;;9.48;4.80;;;;;;;23.25;63.28;99220.34;4886161;29;20021;-93
2023/07/06 05:49:52;;;;;;;9.38;4.95;;;;;;;23.23;63.81;99212.44;4887437;29;20036;-95
2023/07/06 05:52:18;;;;;;;8.25;5.72;;;;;;;23.38;61.42;99208.06;4884089;29;20093;-96
2023/07/06 05:54:50;;;;;;;11.77;4.50;;;;;;;23.57;62.16;99232.84;4874667;29;20527;-96
2023/07/06 05:57:19;;;;;;;4.72;3.22;;;;;;;23.52;60.57;99207.59;4887761;29;20109;-96
2023/07/06 06:00:15;;;;;;;6.78;3.97;;;;;;;23.85;60.92;99226.41;4871885;29;20029;-90
2023/07/06 06:02:44;;;;;;;5.95;3.35;;;;;;;23.76;59.77;99199.13;4856586;29;20041;-91
2023/07/06 06:05:13;;;;;;;5.05;4.00;;;;;;;23.96;60.18;99223.84;4874324;29;20120;-91
2023/07/06 06:07:45;;;;;;;5.03;3.75;;;;;;;23.87;60.21;99196.59;4899042;29;20408;-93
2023/07/06 06:10:11;;;;;;;6.68;3.80;;;;;;;23.98;59.70;99200.34;4864917;29;20040;-92
2023/07/06 06:12:38;;;;;;;6.13;4.00;;;;;;;24.07;59.93;99199.31;4874413;29;20040;-90
2023/07/06 06:15:17;;;;;;;6.78;3.75;;;;;;;24.08;58.21;99187.16;4875283;29;20567;-91
2023/07/06 06:17:44;;;;;;;6.07;3.80;;;;;;;24.03;58.34;99191.00;4891832;29;20080;-92
2023/07/06 06:30:35;;;;;;;8.10;3.72;;;;;;;24.49;57.07;99195.78;4848730;29;20097;-92
2023/07/06 06:33:05;;;;;;;9.50;4.32;;;;;;;24.46;57.00;99194.53;4821337;29;20029;-91
2023/07/06 06:35:45;;;;;;;8.13;3.80;;;;;;;24.51;57.35;99185.19;4819045;29;20060;-94
2023/07/06 06:38:11;;;;;;;5.85;4.15;;;;;;;24.56;57.39;99188.47;4822299;29;20518;-93
2023/07/06 06:40:37;;;;;;;4.20;2.90;;;;;;;24.81;56.16;99199.88;4857693;29;20067;-92
2023/07/06 06:43:05;;;;;;;4.15;3.15;;;;;;;24.71;56.43;99180.44;4873586;29;20041;-91
2023/07/06 06:45:31;;;;;;;7.00;3.40;;;;;;;24.74;56.73;99175.00;4874614;29;20029;-90
2023/07/06 06:47:57;;;;;;;6.68;3.03;;;;;;;24.79;55.58;99180.19;4875116;29;20052;-92
2023/07/06 06:50:23;;;;;;;6.72;5.10;;;;;;;24.87;54.52;99177.56;4861884;29;20063;-91
2023/07/06 06:52:49;;;;;;;5.55;2.88;;;;;;;24.84;54.70;99187.34;4872972;29;20029;-93
2023/07/06 06:55:21;;;;;;;7.80;3.20;;;;;;;24.90;54.86;99163.84;4885008;29;20041;-93
2023/07/06 06:57:49;;;;;;;4.28;3.40;;;;;;;25.13;54.31;99168.50;4877903;29;20033;-92
2023/07/06 07:00:26;;;;;;;3.70;3.00;;;;;;;25.39;53.58;99195.28;4869070;29;20100;-90
2023/07/06 07:02:55;;;;;;;4.47;3.28;;;;;;;25.20;53.69;99180.44;4873104;29;20415;-92
2023/07/06 07:05:20;;;;;;;4.00;3.17;;;;;;;25.18;53.83;99190.22;4879616;29;20036;-91
2023/07/06 07:07:47;;;;;;;4.78;2.90;;;;;;;25.29;54.35;99182.16;4857567;29;20041;-89
2023/07/06 07:10:13;;;;;;;4.18;3.30;;;;;;;25.33;53.01;99177.47;4884150;29;20029;-91
2023/07/06 07:12:41;;;;;;;3.42;2.95;;;;;;;25.38;53.30;99175.19;4872054;29;20028;-91
2023/07/06 07:15:30;;;;;;;4.32;3.17;;;;;;;25.25;53.16;99165.56;4873461;29;20040;-94
2023/07/06 07:17:57;;;;;;;7.43;3.60;;;;;;;25.48;52.72;99176.50;4889052;29;20028;-94
2023/07/06 07:20:26;;;;;;;4.72;2.72;;;;;;;25.45;52.60;99173.72;4872114;29;20025;-94
2023/07/06 07:22:55;;;;;;;4.80;2.83;;;;;;;25.67;52.49;99174.75;4859486;29;20029;-93
2023/07/06 07:25:23;;;;;;;3.92;3.10;;;;;;;25.44;53.41;99161.88;4881266;29;20025;-91
2023/07/06 07:27:49;;;;;;;5.45;2.92;;;;;;;25.81;52.49;99181.25;4867687;29;20471;-92
2023/07/06 07:30:15;;;;;;;4.97;2.92;;;;;;;25.94;51.87;99168.03;4866594;29;20040;-94
2023/07/06 07:32:43;;;;;;;4.40;2.78;;;;;;;25.95;50.89;99174.34;4871471;29;20036;-94
2023/07/06 07:35:49;;;;;;;4.53;3.20;;;;;;;25.94;51.62;99150.66;4873307;29;20104;-94
2023/07/06 07:38:29;;;;;;;9.00;4.75;;;;;;;26.19;51.19;99179.34;4901154;29;20048;-91
2023/07/06 07:41:01;;;;;;;3.20;2.65;;;;;;;26.00;51.01;99158.25;4876283;29;20040;-92
2023/07/06 07:43:36;;;;;;;4.20;2.70;;;;;;;26.32;50.20;99166.06;4878715;29;20052;-92
2023/07/06 07:46:03;;;;;;;2.95;2.50;;;;;;;26.17;49.24;99165.13;4875604;29;20037;-96
2023/07/06 07:48:38;;;;;;;4.82;3.00;;;;;;;26.35;49.26;99168.06;4875822;29;20022;-90
2023/07/06 07:54:26;;;;;;;3.05;2.28;;;;;;;26.29;47.49;99139.19;4868372;29;20131;-92
2023/07/06 08:06:57;;;;;;;;;;;;;;;26.66;50.43;99188.09;4853509;29;20064;-93
2023/07/06 08:09:26;;;;;;;7.47;3.47;;;;;;;26.77;49.58;99189.00;4839344;29;19932;-90
2023/07/06 08:11:53;;;;;;;5.95;2.80;;;;;;;27.02;49.31;99191.94;4820339;29;20042;-91
2023/07/06 08:14:38;;;;;;;3.97;2.95;;;;;;;27.11;48.07;99165.94;4835608;29;20041;-91
2023/07/06 08:17:05;;;;;;;4.13;2.80;;;;;;;27.25;47.33;99168.00;4817003;29;20045;-92
2023/07/06 08:19:48;;;;;;;5.68;2.95;;;;;;;27.10;48.19;99165.16;4833562;29;20105;-93
2023/07/06 08:22:20;;;;;;;6.75;2.53;;;;;;;27.43;47.47;99191.03;4850077;29;20038;-92
2023/07/06 08:24:47;;;;;;;9.10;4.15;;;;;;;27.46;47.33;99167.34;4838713;29;20428;-92
2023/07/06 08:27:12;;;;;;;5.63;2.53;;;;;;;27.52;47.12;99169.34;4851436;29;20045;-96
2023/07/06 08:29:43;;;;;;;5.15;3.70;;;;;;;27.76;46.88;99173.41;4856934;29;20025;-94
2023/07/06 08:32:11;;;;;;;3.33;2.20;;;;;;;27.69;45.48;99156.00;4858639;29;20040;-94
2023/07/06 08:34:37;;;;;;;2.83;2.28;;;;;;;27.78;45.40;99153.66;4872886;29;20101;-92
2023/07/06 08:37:06;;;;;;;6.45;2.00;;;;;;;27.67;46.53;99161.13;4842147;29;20029;-92
2023/07/06 08:39:34;;;;;;;3.45;2.22;;;;;;;27.64;46.02;99167.41;4855377;29;20032;-93
2023/07/06 08:42:03;;;;;;;4.18;1.80;;;;;;;27.68;45.48;99176.53;4871802;29;20104;-94
2023/07/06 08:44:33;;;;;;;3.53;2.10;;;;;;;27.70;45.50;99157.56;4874563;29;20037;-93
2023/07/06 08:47:14;;;;;;;3.90;1.90;;;;;;;27.71;44.99;99159.16;4859828;29;20411;-94
2023/07/06 08:49:43;;;;;;;3.05;1.77;;;;;;;27.68;43.64;99152.41;4861505;29;20045;-94
2023/07/06 08:52:18;;;;;;;2.33;1.80;;;;;;;27.78;44.10;99173.78;4846374;29;20074;-93
2023/07/06 08:54:46;;;;;;;5.47;2.20;;;;;;;27.73;43.70;99157.59;4876590;29;20028;-93
2023/07/06 08:58:13;;;;;;;3.40;2.20;;;;;;;27.60;45.12;99151.63;4860942;29;20029;-92
2023/07/06 09:01:10;;;;;;;6.50;2.38;;;;;;;27.73;44.27;99173.41;4834646;29;20049;-94
2023/07/06 09:03:58;;;;;;;2.63;1.95;;;;;;;27.79;44.65;99147.72;4830576;29;20132;-89
2023/07/06 09:06:48;;;;;;;8.75;2.75;;;;;;;27.77;44.69;99135.47;4839916;29;20060;-92
2023/07/06 09:09:38;;;;;;;3.13;2.25;;;;;;;27.85;44.54;99139.03;4856562;29;20089;-91
2023/07/06 09:12:24;;;;;;;3.15;2.30;;;;;;;28.01;42.90;99145.81;4837993;29;20030;-93
2023/07/06 09:14:53;;;;;;;3.20;2.20;;;;;;;28.05;42.87;99161.66;4835923;29;20120;-91
2023/07/06 09:17:19;;;;;;;3.83;2.17;;;;;;;28.32;43.35;99175.97;4837324;29;20053;-93
2023/07/06 09:20:09;;;;;;;3.80;2.38;;;;;;;28.25;44.83;99181.50;4854176;29;20045;-94
2023/07/06 09:22:43;;;;;;;2.50;2.10;;;;;;;28.17;45.08;99144.69;4846188;29;20041;-92
2023/07/06 09:25:17;;;;;;;8.30;2.25;;;;;;;28.35;44.12;99175.97;4838118;29;20141;-91
2023/07/06 09:27:52;;;;;;;3.45;2.10;;;;;;;28.25;44.43;99153.81;4852793;29;20033;-91
2023/07/06 09:30:29;;;;;;;3.22;2.30;;;;;;;28.45;45.01;99162.50;4872278;29;20045;-89
2023/07/06 09:33:04;;;;;;;3.38;2.15;;;;;;;28.60;43.09;99170.47;4871624;29;20039;-90
2023/07/06 09:35:35;;;;;;;4.20;2.20;;;;;;;28.59;43.53;99162.56;4871595;29;20085;-90
2023/07/06 09:38:01;;;;;;;3.50;2.20;;;;;;;28.68;43.77;99162.97;4886116;29;20040;-90
2023/07/06 09:40:30;;;;;;;3.42;2.00;;;;;;;28.64;43.24;99147.50;4884522;29;20468;-90
2023/07/06 09:42:59;;;;;;;3.10;2.40;;;;;;;28.67;42.99;99141.97;4874113;29;20104;-93
2023/07/06 09:45:27;;;;;;;3.47;2.78;;;;;;;28.84;43.34;99167.31;4886500;29;20047;-90
2023/07/06 09:48:05;;;;;;;9.38;2.53;;;;;;;28.78;43.23;99137.22;4871402;29;20035;-93
2023/07/06 09:50:38;;;;;;;3.90;2.53;;;;;;;28.84;43.53;99157.00;4875220;29;20028;-90
2023/07/06 09:53:07;;;;;;;4.57;2.63;;;;;;;28.84;42.97;99145.91;4876919;29;20127;-91
2023/07/06 09:55:33;;;;;;;4.57;2.42;;;;;;;28.93;43.49;99151.84;4878793;29;20033;-92
2023/07/06 09:58:02;;;;;;;4.25;2.63;;;;;;;28.91;43.24;99128.47;4877082;29;20112;-91
2023/07/06 10:01:05;;;;;;;3.55;2.58;;;;;;;29.16;42.71;99159.78;4877864;29;20067;-92
2023/07/06 10:03:42;;;;;;;3.10;2.30;;;;;;;29.08;42.38;99149.06;4829791;29;20501;-89
2023/07/06 10:06:26;;;;;;;3.00;2.40;;;;;;;29.09;43.03;99145.88;4902667;29;20067;-91
2023/07/06 10:09:03;;;;;;;3.33;2.40;;;;;;;29.14;43.22;99151.06;4904648;29;20064;-92
2023/07/06 10:14:44;;;;;;;3.08;2.50;;;;;;;28.86;42.62;99112.28;4861092;29;20072;-91
2023/07/06 10:17:30;;;;;;;3.08;2.42;;;;;;;29.13;42.73;99132.81;4858353;29;20489;-92
2023/07/06 10:20:12;;;;;;;4.53;2.30;;;;;;;28.99;42.40;99111.47;4874709;29;20041;-93
2023/07/06 10:23:04;;;;;;;8.05;4.20;;;;;;;29.27;42.56;99134.78;4858833;29;20173;-91
2023/07/06 10:25:46;;;;;;;4.07;2.60;;;;;;;29.18;43.46;99124.09;4875372;29;20033;-93
2023/07/06 10:28:37;;;;;;;8.73;6.75;;;;;;;29.21;44.37;99103.88;4850271;29;20458;-92
2023/07/06 10:31:03;;;;;;;3.33;2.55;;;;;;;29.32;43.78;99100.28;4839379;29;20049;-93
2023/07/06 10:33:37;;;;;;;3.67;2.53;;;;;;;29.48;42.92;99122.81;4837584;29;20037;-92
2023/07/06 10:36:02;;;;;;;5.97;3.58;;;;;;;29.36;43.50;99104.63;4824583;29;20527;-92
2023/07/06 10:38:57;;;;;;;4.70;2.90;;;;;;;29.39;42.57;99117.69;4840720;29;20049;-94
2023/07/06 10:41:31;;;;;;;3.60;2.90;;;;;;;29.38;42.63;99118.09;4834454;29;20072;-95
2023/07/06 10:44:01;;;;;;;4.68;2.85;;;;;;;29.20;43.63;99091.22;4823669;29;20064;-94
2023/07/06 10:47:08;;;;;;;;;;;;;;;;;;;;;
2023/07/06 10:57:54;;;;;;;3.97;2.53;;;;;;;29.38;42.33;99091.13;5423764;23;20288;-94
2023/07/06 11:00:30;;;;;;;3.97;2.63;;;;;;;29.49;42.70;99093.88;4919627;29;20052;-96
2023/07/06 11:02:56;;;;;;;3.42;2.65;;;;;;;29.53;42.78;99105.75;4899005;29;20111;-92
2023/07/06 11:05:33;;;;;;;6.25;3.17;;;;;;;29.33;42.51;99069.38;4898056;29;20032;-94
2023/07/06 11:08:11;;;;;;;5.10;3.10;;;;;;;29.40;43.06;99071.31;4914441;29;20052;-95
2023/07/06 11:10:39;;;;;;;27.88;22.17;;;;;;;29.72;42.45;99092.63;4894359;29;20048;-95
2023/07/06 11:13:04;;;;;;;3.88;2.90;;;;;;;29.84;42.02;99100.44;4911234;29;20035;-93
2023/07/06 11:19:13;;;;;;;3.05;2.47;;;;;;;29.85;41.07;99090.16;4932692;29;20161;-95
2023/07/06 11:21:58;;;;;;;3.67;2.80;;;;;;;29.51;41.14;99055.44;4884194;29;20042;-94
2023/07/06 11:24:34;;;;;;;3.00;2.35;;;;;;;29.53;40.84;99060.56;4899061;29;20043;-93
2023/07/06 11:27:22;;;;;;;3.80;3.00;;;;;;;29.64;40.01;99077.97;4902650;29;20047;-93
2023/07/06 11:35:24;;;;;;;6.18;4.00;;;;;;;29.71;40.81;99041.06;4935169;28;20044;-93
2023/07/06 11:37:56;;;;;;;3.95;2.22;;;;;;;29.87;40.30;99069.13;4937171;29;20044;-95
2023/07/06 11:41:10;;;;;;;6.50;2.60;;;;;;;30.14;40.24;99058.22;4919439;29;20032;-95
2023/07/06 11:44:16;;;;;;;3.65;2.72;;;;;;;30.27;39.73;99066.06;4916649;29;20024;-96
2023/07/06 11:47:15;;;;;;;6.38;3.03;;;;;;;30.39;39.23;99054.47;4907912;29;20044;-95
2023/07/06 11:49:45;;;;;;;4.38;2.50;;;;;;;30.30;39.65;99037.47;4934618;29;20031;-96
2023/07/06 11:59:15;;;;;;;5.07;2.67;;;;;;;30.42;37.42;99032.22;4870594;29;20068;-96
2023/07/06 12:01:57;;;;;;;5.07;2.90;;;;;;;30.34;38.26;99022.38;4933047;29;20095;-95
2023/07/06 12:05:07;;;;;;;2.95;2.30;;;;;;;30.59;37.19;99044.34;4905674;29;20032;-95
2023/07/06 12:07:39;;;;;;;7.80;3.20;;;;;;;30.47;37.03;99014.31;4934693;29;20059;-95
2023/07/06 12:10:06;;;;;;;3.42;2.42;;;;;;;30.49;36.02;99019.47;4899312;29;20028;-96
2023/07/06 12:12:43;;;;;;;3.53;2.92;;;;;;;30.61;36.12;99011.38;4900269;29;20379;-96
2023/07/06 12:15:16;;;;;;;5.32;2.97;;;;;;;30.56;35.01;99016.59;4909477;29;20079;-96
2023/07/06 12:17:43;;;;;;;4.18;2.67;;;;;;;30.77;35.82;99027.47;4894912;29;20459;-94
2023/07/06 12:20:10;;;;;;;4.80;2.50;;;;;;;30.83;35.09;99025.03;4899597;29;20020;-94
2023/07/06 12:22:36;;;;;;;4.82;2.65;;;;;;;30.90;34.26;99022.22;4898744;29;20023;-93
2023/07/06 12:25:01;;;;;;;4.88;2.72;;;;;;;31.07;33.30;99023.22;4929769;29;20038;-96
2023/07/06 12:27:49;;;;;;;5.70;2.78;;;;;;;31.34;32.87;99039.16;4913050;29;20025;-94
2023/07/06 12:30:17;;;;;;;3.78;2.53;;;;;;;31.33;32.81;99018.09;4908048;29;20032;-93
2023/07/06 12:32:47;;;;;;;4.45;2.47;;;;;;;31.49;33.15;99028.66;4899600;29;20028;-94
2023/07/06 12:35:12;;;;;;;4.22;2.92;;;;;;;31.34;33.94;99019.69;4896864;29;20491;-93
2023/07/06 12:37:41;;;;;;;5.40;2.85;;;;;;;31.39;34.04;99002.53;4893365;29;20040;-94
2023/07/06 12:40:27;;;;;;;3.05;2.42;;;;;;;31.51;33.82;99004.75;4872190;29;20032;-95
2023/07/06 12:42:56;;;;;;;3.08;2.47;;;;;;;31.37;33.66;99010.50;4911655;29;20032;-94
2023/07/06 12:45:22;;;;;;;8.00;2.97;;;;;;;31.32;33.42;99003.41;4882908;29;20044;-92
2023/07/06 12:47:55;;;;;;;3.42;2.90;;;;;;;31.48;33.84;99005.63;4908196;29;20029;-95
2023/07/06 12:50:28;;;;;;;4.38;2.65;;;;;;;31.57;34.09;99003.09;4894102;29;20025;-93
2023/07/06 12:53:12;;;;;;;5.00;2.95;;;;;;;31.72;34.35;99008.44;4903561;29;20095;-95